Time,TemperatureF,DewpointF,PressureIn,WindDirection,WindDirectionDegrees,WindSpeedMPH,WindSpeedGustMPH,Humidity,HourlyPrecipIn,Conditions,Clouds,dailyrainin,SolarRadiationWatts/m^2,SoftwareType,DateUTC
2013-05-08 00:00:00,54.9,52.0,30.06,WSW,238,0.0,0.0,90,0.00,CLR,FEW,0.00,0.0,WeatherDisplay:10.37,2013-05-08 04:00:00,
2013-05-08 00:01:00,54.9,52.0,30.06,WSW,238,0.0,0.0,90,0.00,CLR,FEW,0.00,0.0,WeatherDisplay:10.37,2013-05-08 04:01:00,
2013-05-08 00:06:00,54.5,51.9,30.06,WSW,238,0.0,0.0,91,0.00,CLR,FEW,0.00,0.0,WeatherDisplay:10.37,2013-05-08 04:06:00,
2013-05-08 00:11:00,54.2,51.6,30.06,WSW,238,0.0,0.0,91,0.00,CLR,FEW,0.00,0.0,WeatherDisplay:10.37,2013-05-08 04:11:00,
2013-05-08 00:16:00,54.0,51.4,30.06,WSW,238,0.0,0.0,91,0.00,CLR,FEW,0.00,0.0,WeatherDisplay:10.37,2013-05-08 04:16:00,
2013-05-08 00:21:00,53.8,51.5,30.06,WSW,238,0.0,0.0,92,0.00,CLR,FEW,0.00,0.0,WeatherDisplay:10.37,2013-05-08 04:21:00,
2013-05-08 00:26:00,53.7,51.4,30.06,WSW,238,0.0,0.0,92,0.00,CLR,FEW,0.00,0.0,WeatherDisplay:10.37,2013-05-08 04:26:00,
2013-05-08 00:31:00,53.6,51.6,30.06,WSW,238,0.0,0.0,93,0.00,CLR,FEW,0.00,0.0,WeatherDisplay:10.37,2013-05-08 04:31:00,
2013-05-08 00:36:00,53.5,51.5,30.06,WSW,238,0.0,0.0,93,0.00,CLR,FEW,0.00,0.0,WeatherDisplay:10.37,2013-05-08 04:36:00,
2013-05-08 00:41:00,53.3,51.3,30.06,WSW,238,0.0,0.0,93,0.00,CLR,FEW,0.00,0.0,WeatherDisplay:10.37,2013-05-08 04:41:00,
2013-05-08 00:46:00,53.2,51.2,30.06,WSW,238,0.0,0.0,93,0.00,CLR,FEW,0.00,0.0,WeatherDisplay:10.37,2013-05-08 04:46:00,
2013-05-08 00:51:00,53.1,51.1,30.06,WSW,238,0.0,0.0,93,0.00,CLR,FEW,0.00,0.0,WeatherDisplay:10.37,2013-05-08 04:51:00,
2013-05-08 00:56:00,52.9,51.2,30.06,WSW,238,0.0,0.0,94,0.00,CLR,FEW,0.00,0.0,WeatherDisplay:10.37,2013-05-08 04:56:00,
2013-05-08 01:01:00,52.8,51.1,30.06,WSW,238,0.0,0.0,94,0.00,CLR,FEW,0.00,0.0,WeatherDisplay:10.37,2013-05-08 05:01:00,
2013-05-08 01:06:00,52.8,51.1,30.06,WSW,238,0.0,0.0,94,0.00,CLR,FEW,0.00,0.0,WeatherDisplay:10.37,2013-05-08 05:06:00,
2013-05-08 01:11:00,52.8,51.1,30.06,WSW,238,0.0,0.0,94,0.00,CLR,FEW,0.00,0.0,WeatherDisplay:10.37,2013-05-08 05:11:00,
2013-05-08 01:16:00,53.2,51.8,30.06,WSW,238,0.2,0.0,95,0.00,CLR,FEW,0.00,0.0,WeatherDisplay:10.37,2013-05-08 05:16:00,
2013-05-08 01:21:00,53.9,52.5,30.06,WSW,238,1.5,3.0,95,0.00,CLR,FEW,0.00,0.0,WeatherDisplay:10.37,2013-05-08 05:21:00,
2013-05-08 01:26:00,54.2,53.1,30.06,WSW,238,0.0,1.2,96,0.00,CLR,FEW,0.00,0.0,WeatherDisplay:10.37,2013-05-08 05:26:00,
2013-05-08 01:31:00,53.9,52.5,30.06,WSW,238,0.2,2.3,95,0.00,CLR,FEW,0.00,0.0,WeatherDisplay:10.37,2013-05-08 05:31:00,
2013-05-08 01:36:00,53.6,52.2,30.06,WSW,238,0.4,2.0,95,0.00,CLR,FEW,0.00,0.0,WeatherDisplay:10.37,2013-05-08 05:36:00,
2013-05-08 01:41:00,53.5,52.1,30.05,WSW,238,0.0,0.0,95,0.00,CLR,FEW,0.00,0.0,WeatherDisplay:10.37,2013-05-08 05:41:00,
2013-05-08 01:46:00,53.2,51.8,30.05,WSW,238,0.0,0.0,95,0.00,CLR,FEW,0.00,0.0,WeatherDisplay:10.37,2013-05-08 05:46:00,
2013-05-08 01:51:00,52.8,51.4,30.05,WSW,238,0.0,0.0,95,0.00,CLR,FEW,0.00,0.0,WeatherDisplay:10.37,2013-05-08 05:51:00,
2013-05-08 01:56:00,52.9,51.8,30.05,WSW,238,0.0,0.0,96,0.00,CLR,FEW,0.00,0.0,WeatherDisplay:10.37,2013-05-08 05:56:00,
2013-05-08 02:01:00,52.6,51.2,30.05,WSW,238,0.0,0.0,95,0.00,CLR,FEW,0.00,0.0,WeatherDisplay:10.37,2013-05-08 06:01:00,
2013-05-08 02:06:00,52.2,50.8,30.05,WSW,238,0.0,0.0,95,0.00,CLR,FEW,0.00,0.0,WeatherDisplay:10.37,2013-05-08 06:06:00,
2013-05-08 02:11:00,52.0,50.6,30.06,WSW,238,0.0,0.0,95,0.00,CLR,FEW,0.00,0.0,WeatherDisplay:10.37,2013-05-08 06:11:00,
2013-05-08 02:16:00,51.8,50.7,30.06,WSW,238,0.0,0.0,96,0.00,CLR,FEW,0.00,0.0,WeatherDisplay:10.37,2013-05-08 06:16:00,
2013-05-08 02:21:00,51.6,50.5,30.06,WSW,238,0.0,0.0,96,0.00,CLR,FEW,0.00,0.0,WeatherDisplay:10.37,2013-05-08 06:21:00,
2013-05-08 02:26:00,51.5,50.4,30.05,WSW,238,0.0,0.0,96,0.00,CLR,FEW,0.00,0.0,WeatherDisplay:10.37,2013-05-08 06:26:00,
2013-05-08 02:31:00,51.4,50.3,30.05,WSW,238,0.0,0.0,96,0.00,CLR,FEW,0.00,0.0,WeatherDisplay:10.37,2013-05-08 06:31:00,
2013-05-08 02:36:00,51.3,50.2,30.05,WSW,238,0.0,0.0,96,0.00,CLR,FEW,0.00,0.0,WeatherDisplay:10.37,2013-05-08 06:36:00,
2013-05-08 02:41:00,51.3,50.2,30.06,WSW,238,0.0,0.0,96,0.00,CLR,FEW,0.00,0.0,WeatherDisplay:10.37,2013-05-08 06:41:00,
2013-05-08 02:46:00,51.2,50.1,30.06,WSW,238,0.0,0.0,96,0.00,CLR,FEW,0.00,0.0,WeatherDisplay:10.37,2013-05-08 06:46:00,
2013-05-08 02:51:00,51.1,50.0,30.06,WSW,238,0.0,0.0,96,0.00,CLR,FEW,0.00,0.0,WeatherDisplay:10.37,2013-05-08 06:51:00,
2013-05-08 02:56:00,51.0,49.9,30.06,WSW,238,0.0,0.0,96,0.00,CLR,FEW,0.00,0.0,WeatherDisplay:10.37,2013-05-08 06:56:00,
2013-05-08 03:01:00,50.9,49.8,30.06,WSW,238,0.0,0.0,96,0.00,CLR,FEW,0.00,0.0,WeatherDisplay:10.37,2013-05-08 07:01:00,
2013-05-08 03:06:00,50.8,49.7,30.06,WSW,238,0.0,0.0,96,0.00,CLR,FEW,0.00,0.0,WeatherDisplay:10.37,2013-05-08 07:06:00,
2013-05-08 03:12:00,50.7,49.6,30.06,WSW,238,0.0,0.0,96,0.00,CLR,FEW,0.00,0.0,WeatherDisplay:10.37,2013-05-08 07:12:00,
2013-05-08 03:17:00,50.6,49.5,30.06,WSW,238,0.0,0.0,96,0.00,CLR,FEW,0.00,0.0,WeatherDisplay:10.37,2013-05-08 07:17:00,
2013-05-08 03:22:00,50.5,49.4,30.06,WSW,238,0.0,0.0,96,0.00,CLR,FEW,0.00,0.0,WeatherDisplay:10.37,2013-05-08 07:22:00,
2013-05-08 03:27:00,50.4,49.3,30.06,WSW,238,0.0,0.0,96,0.00,CLR,FEW,0.00,0.0,WeatherDisplay:10.37,2013-05-08 07:27:00,
2013-05-08 03:32:00,50.4,49.3,30.06,WSW,238,0.0,0.0,96,0.00,CLR,FEW,0.00,0.0,WeatherDisplay:10.37,2013-05-08 07:32:00,
2013-05-08 03:37:00,50.3,49.2,30.06,WSW,238,0.0,0.0,96,0.00,CLR,FEW,0.00,0.0,WeatherDisplay:10.37,2013-05-08 07:37:00,
2013-05-08 03:42:00,50.4,49.3,30.07,WSW,238,0.0,0.0,96,0.00,CLR,FEW,0.00,0.0,WeatherDisplay:10.37,2013-05-08 07:42:00,
2013-05-08 03:47:00,50.5,49.7,30.07,WSW,238,0.0,0.0,97,0.00,CLR,FEW,0.00,0.0,WeatherDisplay:10.37,2013-05-08 07:47:00,
2013-05-08 03:52:00,50.6,49.8,30.07,WSW,238,0.0,0.0,97,0.00,CLR,FEW,0.00,0.0,WeatherDisplay:10.37,2013-05-08 07:52:00,
2013-05-08 03:57:00,50.7,49.9,30.06,WSW,238,0.0,0.0,97,0.00,CLR,FEW,0.00,0.0,WeatherDisplay:10.37,2013-05-08 07:57:00,
2013-05-08 04:02:00,50.7,49.9,30.06,WSW,238,0.0,0.0,97,0.00,CLR,FEW,0.00,0.0,WeatherDisplay:10.37,2013-05-08 08:02:00,
2013-05-08 04:07:00,50.7,49.9,30.06,WSW,238,0.0,0.0,97,0.00,CLR,FEW,0.00,0.0,WeatherDisplay:10.37,2013-05-08 08:07:00,
2013-05-08 04:12:00,50.9,50.1,30.07,WSW,238,0.0,0.0,97,0.00,CLR,FEW,0.00,0.0,WeatherDisplay:10.37,2013-05-08 08:12:00,
2013-05-08 04:17:00,51.1,50.3,30.07,WSW,238,0.0,0.0,97,0.00,CLR,FEW,0.00,0.0,WeatherDisplay:10.37,2013-05-08 08:17:00,
2013-05-08 04:22:00,51.3,50.5,30.07,WSW,238,0.0,0.0,97,0.00,CLR,FEW,0.00,0.0,WeatherDisplay:10.37,2013-05-08 08:22:00,
2013-05-08 04:27:00,51.7,50.9,30.07,WSW,238,0.0,0.0,97,0.00,CLR,FEW,0.00,0.0,WeatherDisplay:10.37,2013-05-08 08:27:00,
2013-05-08 04:32:00,51.9,51.1,30.07,WSW,238,0.0,0.0,97,0.00,CLR,FEW,0.00,0.0,WeatherDisplay:10.37,2013-05-08 08:32:00,
2013-05-08 04:37:00,51.8,51.0,30.07,WSW,238,0.0,0.0,97,0.00,CLR,FEW,0.00,0.0,WeatherDisplay:10.37,2013-05-08 08:37:00,
2013-05-08 04:42:00,51.9,51.1,30.07,WSW,238,0.0,0.0,97,0.00,CLR,FEW,0.00,0.0,WeatherDisplay:10.37,2013-05-08 08:42:00,
2013-05-08 04:47:00,51.9,51.1,30.07,WSW,238,0.0,0.0,97,0.00,CLR,FEW,0.00,0.0,WeatherDisplay:10.37,2013-05-08 08:47:00,
2013-05-08 04:52:00,51.9,51.1,30.07,WSW,238,0.0,0.0,97,0.00,CLR,FEW,0.00,0.0,WeatherDisplay:10.37,2013-05-08 08:52:00,
2013-05-08 04:57:00,51.9,51.1,30.08,WSW,238,0.0,0.0,97,0.00,CLR,FEW,0.00,0.0,WeatherDisplay:10.37,2013-05-08 08:57:00,
2013-05-08 05:02:00,51.9,51.1,30.08,WSW,238,0.0,0.0,97,0.00,CLR,FEW,0.00,0.0,WeatherDisplay:10.37,2013-05-08 09:02:00,
2013-05-08 05:07:00,51.9,51.1,30.08,WSW,238,0.0,0.0,97,0.00,CLR,FEW,0.00,0.0,WeatherDisplay:10.37,2013-05-08 09:07:00,
2013-05-08 05:12:00,51.9,51.1,30.08,WSW,238,0.0,0.0,97,0.00,CLR,FEW,0.00,0.0,WeatherDisplay:10.37,2013-05-08 09:12:00,
2013-05-08 05:17:00,51.9,51.1,30.08,WSW,238,0.0,0.0,97,0.00,CLR,FEW,0.00,0.0,WeatherDisplay:10.37,2013-05-08 09:17:00,
2013-05-08 05:22:00,51.9,51.1,30.08,WSW,238,0.0,0.0,97,0.00,CLR,FEW,0.00,0.0,WeatherDisplay:10.37,2013-05-08 09:22:00,
2013-05-08 05:27:00,52.0,51.2,30.08,WSW,238,0.0,0.0,97,0.00,CLR,FEW,0.00,5.0,WeatherDisplay:10.37,2013-05-08 09:27:00,
2013-05-08 05:32:00,52.1,51.3,30.08,WSW,238,0.0,0.0,97,0.00,SCT,FEW,0.00,7.0,WeatherDisplay:10.37,2013-05-08 09:32:00,
2013-05-08 05:37:00,51.9,51.1,30.08,WSW,238,0.0,0.0,97,0.00,BKN,FEW,0.00,9.0,WeatherDisplay:10.37,2013-05-08 09:37:00,
2013-05-08 05:42:00,51.8,51.3,30.08,WSW,238,0.0,0.0,98,0.00,BKN,FEW,0.00,9.0,WeatherDisplay:10.37,2013-05-08 09:42:00,
2013-05-08 05:47:00,51.9,51.4,30.08,WSW,238,0.0,0.0,98,0.00,BKN,FEW,0.00,11.0,WeatherDisplay:10.37,2013-05-08 09:47:00,
2013-05-08 05:52:00,52.4,51.9,30.08,WSW,238,0.7,2.3,98,0.00,BKN,FEW,0.00,14.0,WeatherDisplay:10.37,2013-05-08 09:52:00,
2013-05-08 05:57:00,52.3,51.8,30.08,WSW,238,1.7,3.5,98,0.00,BKN,FEW,0.00,18.0,WeatherDisplay:10.37,2013-05-08 09:57:00,
2013-05-08 06:02:00,52.1,51.6,30.08,WSW,238,0.8,3.0,98,0.00,BKN,FEW,0.00,21.0,WeatherDisplay:10.37,2013-05-08 10:02:00,
2013-05-08 06:07:00,51.9,51.4,30.08,WSW,238,1.3,2.3,98,0.00,BKN,FEW,0.00,28.0,WeatherDisplay:10.37,2013-05-08 10:07:00,
2013-05-08 06:12:00,51.5,51.0,30.09,WSW,238,0.0,0.0,98,0.00,BKN,FEW,0.00,32.0,WeatherDisplay:10.37,2013-05-08 10:12:00,
2013-05-08 06:17:00,51.5,51.0,30.09,WSW,238,0.0,0.0,98,0.00,BKN,FEW,0.00,30.0,WeatherDisplay:10.37,2013-05-08 10:17:00,
2013-05-08 06:22:00,51.7,51.2,30.09,WSW,238,0.0,0.0,98,0.00,BKN,FEW,0.00,33.0,WeatherDisplay:10.37,2013-05-08 10:22:00,
2013-05-08 06:27:00,51.9,51.4,30.09,WSW,238,0.0,0.0,98,0.00,BKN,FEW,0.00,46.0,WeatherDisplay:10.37,2013-05-08 10:27:00,
2013-05-08 06:32:00,52.0,51.5,30.09,WSW,238,0.0,0.0,98,0.00,BKN,FEW,0.00,58.0,WeatherDisplay:10.37,2013-05-08 10:32:00,
2013-05-08 06:37:00,52.0,51.5,30.09,WSW,238,0.0,0.0,98,0.00,BKN,FEW,0.00,69.0,WeatherDisplay:10.37,2013-05-08 10:37:00,
2013-05-08 06:42:00,52.0,51.5,30.10,WSW,238,0.0,0.0,98,0.00,BKN,FEW,0.00,77.0,WeatherDisplay:10.37,2013-05-08 10:42:00,
2013-05-08 06:47:00,52.3,51.8,30.10,WSW,238,0.0,1.2,98,0.00,BKN,FEW,0.00,79.0,WeatherDisplay:10.37,2013-05-08 10:47:00,
2013-05-08 06:52:00,52.4,51.9,30.11,WSW,238,0.0,0.0,98,0.00,BKN,FEW,0.00,79.0,WeatherDisplay:10.37,2013-05-08 10:52:00,
2013-05-08 06:57:00,52.3,51.8,30.11,WSW,238,0.0,0.0,98,0.00,BKN,FEW,0.00,77.0,WeatherDisplay:10.37,2013-05-08 10:57:00,
2013-05-08 07:02:00,52.6,52.1,30.11,WSW,238,0.0,0.0,98,0.00,BKN,FEW,0.00,91.0,WeatherDisplay:10.37,2013-05-08 11:02:00,
2013-05-08 07:07:00,52.7,52.2,30.12,WSW,238,0.0,0.0,98,0.00,BKN,FEW,0.00,113.0,WeatherDisplay:10.37,2013-05-08 11:07:00,
2013-05-08 07:12:00,52.6,52.1,30.12,WSW,238,0.0,0.0,98,0.00,BKN,FEW,0.00,98.0,WeatherDisplay:10.37,2013-05-08 11:12:00,
2013-05-08 07:17:00,52.5,52.0,30.12,WSW,240,0.1,2.3,98,0.00,SCT,FEW,0.00,148.0,WeatherDisplay:10.37,2013-05-08 11:17:00,
2013-05-08 07:22:00,52.4,51.9,30.12,WSW,240,0.0,0.0,98,0.00,SCT,FEW,0.00,176.0,WeatherDisplay:10.37,2013-05-08 11:22:00,
2013-05-08 07:27:00,52.8,52.3,30.12,WSW,240,0.0,0.0,98,0.00,SCT,FEW,0.00,165.0,WeatherDisplay:10.37,2013-05-08 11:27:00,
2013-05-08 07:32:00,52.8,52.3,30.12,WSW,240,0.0,0.0,98,0.00,SCT,FEW,0.00,171.0,WeatherDisplay:10.37,2013-05-08 11:32:00,
2013-05-08 07:37:00,52.9,52.4,30.12,WSW,240,0.0,0.0,98,0.00,SCT,FEW,0.00,171.0,WeatherDisplay:10.37,2013-05-08 11:37:00,
2013-05-08 07:42:00,53.1,52.6,30.12,WSW,240,0.5,1.2,98,0.00,SCT,FEW,0.00,188.0,WeatherDisplay:10.37,2013-05-08 11:42:00,
2013-05-08 07:47:00,53.4,52.8,30.12,WSW,240,0.3,2.0,98,0.00,BKN,FEW,0.00,200.0,WeatherDisplay:10.37,2013-05-08 11:47:00,
2013-05-08 07:52:00,53.5,52.9,30.12,WSW,240,0.0,1.2,98,0.00,SCT,FEW,0.00,209.0,WeatherDisplay:10.37,2013-05-08 11:52:00,
2013-05-08 07:57:00,53.8,53.2,30.12,WSW,240,0.4,1.0,98,0.00,BKN,FEW,0.00,185.0,WeatherDisplay:10.37,2013-05-08 11:57:00,
2013-05-08 08:02:00,53.9,53.3,30.12,WSW,240,0.6,1.2,98,0.00,FEW,,0.00,308.0,WeatherDisplay:10.37,2013-05-08 12:02:00,
2013-05-08 08:07:00,54.3,53.7,30.12,WSW,240,0.0,0.0,98,0.00,FEW,,0.00,311.0,WeatherDisplay:10.37,2013-05-08 12:07:00,
2013-05-08 08:12:00,54.9,54.3,30.12,WSW,240,0.0,0.0,98,0.00,CLR,FEW,0.00,390.0,WeatherDisplay:10.37,2013-05-08 12:12:00,
2013-05-08 08:17:00,55.7,55.4,30.12,WSW,240,0.0,1.0,99,0.00,CLR,FEW,0.00,469.0,WeatherDisplay:10.37,2013-05-08 12:17:00,
2013-05-08 08:22:00,56.3,55.7,30.13,WSW,240,0.0,0.0,98,0.00,CLR,FEW,0.00,485.0,WeatherDisplay:10.37,2013-05-08 12:22:00,
2013-05-08 08:27:00,57.1,56.5,30.13,WSW,240,0.0,0.0,98,0.00,CLR,FEW,0.00,501.0,WeatherDisplay:10.37,2013-05-08 12:27:00,
2013-05-08 08:32:00,58.2,57.6,30.13,WSW,240,0.0,0.0,98,0.00,CLR,FEW,0.00,519.0,WeatherDisplay:10.37,2013-05-08 12:32:00,
2013-05-08 08:37:00,59.0,58.2,30.14,NW,317,1.3,3.5,97,0.00,CLR,FEW,0.00,533.0,WeatherDisplay:10.37,2013-05-08 12:37:00,
2013-05-08 08:42:00,59.0,58.2,30.14,WSW,241,0.1,1.2,97,0.00,CLR,FEW,0.00,548.0,WeatherDisplay:10.37,2013-05-08 12:42:00,
2013-05-08 08:47:00,59.6,58.2,30.14,West,261,1.4,2.3,95,0.00,CLR,FEW,0.00,559.0,WeatherDisplay:10.37,2013-05-08 12:47:00,
2013-05-08 08:52:00,59.9,58.2,30.13,West,276,1.3,2.3,94,0.00,CLR,FEW,0.00,577.0,WeatherDisplay:10.37,2013-05-08 12:52:00,
2013-05-08 08:57:00,60.5,58.5,30.13,WNW,286,0.5,3.5,93,0.00,CLR,FEW,0.00,591.0,WeatherDisplay:10.37,2013-05-08 12:57:00,
2013-05-08 09:02:00,61.3,58.0,30.13,NE,36,1.0,3.5,89,0.00,CLR,FEW,0.00,606.0,WeatherDisplay:10.37,2013-05-08 13:02:00,
2013-05-08 09:07:00,62.1,57.9,30.14,NNE,26,1.0,3.5,86,0.00,CLR,FEW,0.00,622.0,WeatherDisplay:10.37,2013-05-08 13:07:00,
2013-05-08 09:12:00,62.7,58.1,30.14,NNE,25,1.1,2.3,85,0.00,CLR,FEW,0.00,636.0,WeatherDisplay:10.37,2013-05-08 13:12:00,
2013-05-08 09:17:00,63.4,58.5,30.14,NNE,27,1.0,2.3,84,0.00,CLR,FEW,0.00,652.0,WeatherDisplay:10.37,2013-05-08 13:17:00,
2013-05-08 09:22:00,63.9,58.3,30.14,NE,34,0.5,1.2,82,0.00,CLR,FEW,0.00,663.0,WeatherDisplay:10.37,2013-05-08 13:22:00,
2013-05-08 09:27:00,64.7,58.7,30.14,NNE,33,1.2,2.3,81,0.00,CLR,FEW,0.00,679.0,WeatherDisplay:10.37,2013-05-08 13:27:00,
2013-05-08 09:32:00,65.3,58.6,30.14,NE,34,0.1,1.2,79,0.00,CLR,FEW,0.00,691.0,WeatherDisplay:10.37,2013-05-08 13:32:00,
2013-05-08 09:37:00,65.6,58.2,30.14,NNE,32,1.4,3.5,77,0.00,CLR,FEW,0.00,705.0,WeatherDisplay:10.37,2013-05-08 13:37:00,
2013-05-08 09:42:00,66.0,58.9,30.14,NNE,28,1.8,3.0,78,0.00,CLR,FEW,0.00,705.0,WeatherDisplay:10.37,2013-05-08 13:42:00,
2013-05-08 09:47:00,66.4,58.6,30.14,NNW,340,1.6,3.5,76,0.00,CLR,FEW,0.00,735.0,WeatherDisplay:10.37,2013-05-08 13:47:00,
2013-05-08 09:52:00,67.1,58.5,30.13,NNW,342,2.5,4.0,74,0.00,CLR,FEW,0.00,745.0,WeatherDisplay:10.37,2013-05-08 13:52:00,
2013-05-08 09:57:00,67.4,58.4,30.13,NNW,342,2.3,3.5,73,0.00,CLR,FEW,0.00,765.0,WeatherDisplay:10.37,2013-05-08 13:57:00,
2013-05-08 10:02:00,67.9,57.8,30.13,NNW,340,2.4,3.5,70,0.00,CLR,FEW,0.00,763.0,WeatherDisplay:10.37,2013-05-08 14:02:00,
2013-05-08 10:07:00,68.8,57.8,30.12,NW,325,4.9,5.0,68,0.00,CLR,FEW,0.00,821.0,WeatherDisplay:10.37,2013-05-08 14:07:00,
2013-05-08 10:12:00,69.4,58.0,30.12,NE,36,2.0,3.5,67,0.00,CLR,FEW,0.00,824.0,WeatherDisplay:10.37,2013-05-08 14:12:00,
2013-05-08 10:17:00,69.5,57.6,30.12,NE,36,1.4,3.5,66,0.00,CLR,FEW,0.00,870.0,WeatherDisplay:10.37,2013-05-08 14:17:00,
2013-05-08 10:22:00,69.7,57.4,30.12,North,11,1.1,3.0,65,0.00,CLR,FEW,0.00,816.0,WeatherDisplay:10.37,2013-05-08 14:22:00,
2013-05-08 10:28:00,71.0,57.3,30.12,NE,49,1.1,2.3,62,0.00,CLR,FEW,0.00,875.0,WeatherDisplay:10.37,2013-05-08 14:28:00,
2013-05-08 10:33:00,72.5,58.3,30.12,East,82,0.6,2.3,61,0.00,CLR,FEW,0.01,923.0,WeatherDisplay:10.37,2013-05-08 14:33:00,
2013-05-08 10:38:00,72.1,57.4,30.12,NE,56,1.8,3.5,60,0.01,RA,FEW,0.01,904.0,WeatherDisplay:10.37,2013-05-08 14:38:00,
2013-05-08 10:43:00,71.8,57.2,30.12,ENE,64,1.4,4.0,60,0.01,CLR,FEW,0.01,976.0,WeatherDisplay:10.37,2013-05-08 14:43:00,
2013-05-08 10:48:00,71.7,57.5,30.12,ENE,63,1.0,3.5,61,0.01,CLR,FEW,0.01,963.0,WeatherDisplay:10.37,2013-05-08 14:48:00,
2013-05-08 10:53:00,71.5,57.3,30.12,East,95,1.4,4.6,61,0.01,CLR,FEW,0.01,963.0,WeatherDisplay:10.37,2013-05-08 14:53:00,
2013-05-08 10:58:00,71.8,56.2,30.12,ENE,63,1.7,3.5,58,0.01,CLR,FEW,0.01,984.0,WeatherDisplay:10.37,2013-05-08 14:58:00,
2013-05-08 11:03:00,72.3,55.7,30.12,SSE,157,2.8,5.8,56,0.01,CLR,FEW,0.01,993.0,WeatherDisplay:10.37,2013-05-08 15:03:00,
2013-05-08 11:08:00,72.6,56.0,30.11,East,87,2.0,4.6,56,0.01,CLR,FEW,0.01,918.0,WeatherDisplay:10.37,2013-05-08 15:08:00,
2013-05-08 11:13:00,73.1,56.0,30.11,ESE,107,1.8,3.5,55,0.01,CLR,FEW,0.01,951.0,WeatherDisplay:10.37,2013-05-08 15:13:00,
2013-05-08 11:18:00,73.4,55.2,30.11,ENE,72,0.2,1.2,53,0.01,CLR,FEW,0.01,916.0,WeatherDisplay:10.37,2013-05-08 15:18:00,
2013-05-08 11:23:00,73.3,55.6,30.11,NE,53,1.3,3.5,54,0.01,CLR,FEW,0.01,933.0,WeatherDisplay:10.37,2013-05-08 15:23:00,
2013-05-08 11:28:00,73.4,55.2,30.11,ENE,77,1.2,2.3,53,0.01,CLR,FEW,0.01,944.0,WeatherDisplay:10.37,2013-05-08 15:28:00,
2013-05-08 11:33:00,74.1,55.3,30.11,East,85,2.2,3.5,52,0.00,CLR,FEW,0.01,946.0,WeatherDisplay:10.37,2013-05-08 15:33:00,
2013-05-08 11:38:00,74.2,55.4,30.11,East,83,1.8,3.5,52,0.00,CLR,FEW,0.01,954.0,WeatherDisplay:10.37,2013-05-08 15:38:00,
2013-05-08 11:43:00,74.4,54.0,30.11,ESE,102,4.1,6.9,49,0.00,CLR,FEW,0.01,986.0,WeatherDisplay:10.37,2013-05-08 15:43:00,
2013-05-08 11:48:00,74.4,56.2,30.11,ENE,65,4.2,5.8,53,0.00,CLR,FEW,0.01,1039.0,WeatherDisplay:10.37,2013-05-08 15:48:00,
2013-05-08 11:53:00,74.0,54.7,30.10,NNW,337,2.8,6.9,51,0.00,CLR,FEW,0.01,587.0,WeatherDisplay:10.37,2013-05-08 15:53:00,
2013-05-08 11:58:00,74.2,56.0,30.10,East,84,2.0,4.6,53,0.00,CLR,FEW,0.01,1053.0,WeatherDisplay:10.37,2013-05-08 15:58:00,
2013-05-08 12:03:00,74.4,55.6,30.10,ENE,78,3.6,6.9,52,0.00,CLR,FEW,0.01,1109.0,WeatherDisplay:10.37,2013-05-08 16:03:00,
2013-05-08 12:08:00,74.0,56.3,30.10,NW,323,3.7,5.8,54,0.00,BKN,FEW,0.01,234.0,WeatherDisplay:10.37,2013-05-08 16:08:00,
2013-05-08 12:13:00,73.3,57.1,30.10,West,267,1.0,3.5,57,0.00,BKN,FEW,0.01,234.0,WeatherDisplay:10.37,2013-05-08 16:13:00,
2013-05-08 12:18:00,74.1,56.9,30.10,ESE,108,3.0,9.0,55,0.00,SCT,FEW,0.01,714.0,WeatherDisplay:10.37,2013-05-08 16:18:00,
2013-05-08 12:23:00,74.6,55.3,30.09,ENE,57,0.2,2.3,51,0.00,BKN,FEW,0.01,1220.0,WeatherDisplay:10.37,2013-05-08 16:23:00,
2013-05-08 12:28:00,76.0,56.6,30.09,East,88,0.8,3.5,51,0.00,CLR,FEW,0.01,1269.0,WeatherDisplay:10.37,2013-05-08 16:28:00,
2013-05-08 12:33:00,75.1,56.3,30.09,WNW,287,3.1,4.6,52,0.00,CLR,FEW,0.01,1018.0,WeatherDisplay:10.37,2013-05-08 16:33:00,
2013-05-08 12:38:00,74.7,56.9,30.09,East,94,1.6,4.6,54,0.00,BKN,FEW,0.01,202.0,WeatherDisplay:10.37,2013-05-08 16:38:00,
2013-05-08 12:43:00,74.9,58.1,30.09,West,272,1.4,3.5,56,0.00,BKN,FEW,0.01,206.0,WeatherDisplay:10.37,2013-05-08 16:43:00,
2013-05-08 12:48:00,74.9,58.1,30.09,ENE,78,1.5,2.3,56,0.00,CLR,FEW,0.01,1085.0,WeatherDisplay:10.37,2013-05-08 16:48:00,
2013-05-08 12:53:00,75.3,58.0,30.09,ESE,122,0.5,3.0,55,0.00,CLR,FEW,0.01,1085.0,WeatherDisplay:10.37,2013-05-08 16:53:00,
2013-05-08 12:58:00,75.4,57.6,30.09,WSW,239,1.7,3.5,54,0.00,CLR,FEW,0.01,1107.0,WeatherDisplay:10.37,2013-05-08 16:58:00,
2013-05-08 13:03:00,76.2,58.9,30.09,NNE,25,2.7,6.9,55,0.00,CLR,FEW,0.01,1030.0,WeatherDisplay:10.37,2013-05-08 17:03:00,
2013-05-08 13:08:00,75.4,58.1,30.08,WSW,242,3.5,4.6,55,0.00,BKN,FEW,0.01,227.0,WeatherDisplay:10.37,2013-05-08 17:08:00,
2013-05-08 13:13:00,74.1,57.9,30.08,ESE,122,1.0,3.5,57,0.00,BKN,FEW,0.01,214.0,WeatherDisplay:10.37,2013-05-08 17:13:00,
2013-05-08 13:18:00,73.8,58.1,30.08,ESE,113,1.0,3.5,58,0.00,BKN,FEW,0.01,202.0,WeatherDisplay:10.37,2013-05-08 17:18:00,
2013-05-08 13:23:00,74.5,58.8,30.09,East,82,1.9,4.0,58,0.00,CLR,FEW,0.01,1034.0,WeatherDisplay:10.37,2013-05-08 17:23:00,
2013-05-08 13:28:00,74.6,58.4,30.09,SE,130,1.3,3.5,57,0.00,CLR,FEW,0.01,1037.0,WeatherDisplay:10.37,2013-05-08 17:28:00,
2013-05-08 13:33:00,75.0,58.7,30.09,West,268,3.2,4.0,57,0.00,CLR,FEW,0.01,993.0,WeatherDisplay:10.37,2013-05-08 17:33:00,
2013-05-08 13:38:00,74.4,59.6,30.09,WSW,250,2.1,4.6,60,0.00,CLR,FEW,0.01,204.0,WeatherDisplay:10.37,2013-05-08 17:38:00,
2013-05-08 13:43:00,74.1,59.3,30.09,ESE,109,2.6,5.8,60,0.00,BKN,FEW,0.01,271.0,WeatherDisplay:10.37,2013-05-08 17:43:00,
2013-05-08 13:48:00,73.9,59.1,30.09,West,262,2.5,6.0,60,0.00,BKN,FEW,0.01,271.0,WeatherDisplay:10.37,2013-05-08 17:48:00,
2013-05-08 13:53:00,73.3,59.0,30.09,West,259,2.1,4.0,61,0.00,BKN,FEW,0.01,287.0,WeatherDisplay:10.37,2013-05-08 17:53:00,
2013-05-08 13:58:00,73.0,59.7,30.09,West,274,2.4,4.6,63,0.00,BKN,FEW,0.01,302.0,WeatherDisplay:10.37,2013-05-08 17:58:00,
2013-05-08 14:03:00,72.9,60.0,30.09,West,270,3.7,4.6,64,0.00,SCT,FEW,0.01,649.0,WeatherDisplay:10.37,2013-05-08 18:03:00,
2013-05-08 14:08:00,73.6,60.7,30.08,ENE,58,2.5,4.6,64,0.00,CLR,FEW,0.01,1116.0,WeatherDisplay:10.37,2013-05-08 18:08:00,
2013-05-08 14:13:00,73.3,60.4,30.08,West,263,2.5,6.9,64,0.00,BKN,FEW,0.01,341.0,WeatherDisplay:10.37,2013-05-08 18:13:00,
2013-05-08 14:18:00,72.7,60.7,30.08,WNW,289,2.8,10.4,66,0.00,SCT,FEW,0.01,320.0,WeatherDisplay:10.37,2013-05-08 18:18:00,
2013-05-08 14:23:00,72.2,60.2,30.08,SSE,148,1.5,3.5,66,0.00,BKN,FEW,0.01,167.0,WeatherDisplay:10.37,2013-05-08 18:23:00,
2013-05-08 14:28:00,71.7,60.6,30.08,SW,228,1.6,3.5,68,0.00,BKN,FEW,0.01,229.0,WeatherDisplay:10.37,2013-05-08 18:28:00,
2013-05-08 14:33:00,71.4,60.7,30.08,SSW,209,1.6,3.5,69,0.00,BKN,FEW,0.01,267.0,WeatherDisplay:10.37,2013-05-08 18:33:00,
2013-05-08 14:38:00,71.7,61.0,30.08,West,271,2.6,4.0,69,0.00,BKN,FEW,0.01,717.0,WeatherDisplay:10.37,2013-05-08 18:38:00,
2013-05-08 14:43:00,72.2,61.0,30.08,West,277,5.1,9.2,68,0.00,SCT,FEW,0.01,617.0,WeatherDisplay:10.37,2013-05-08 18:43:00,
2013-05-08 14:48:00,73.1,60.6,30.08,West,276,2.5,5.8,65,0.00,BKN,FEW,0.01,346.0,WeatherDisplay:10.37,2013-05-08 18:48:00,
2013-05-08 14:53:00,72.0,60.4,30.08,North,5,1.5,5.8,67,0.00,SCT,FEW,0.01,438.0,WeatherDisplay:10.37,2013-05-08 18:53:00,
2013-05-08 14:58:00,72.3,60.7,30.08,SSE,164,2.6,3.5,67,0.00,SCT,FEW,0.01,485.0,WeatherDisplay:10.37,2013-05-08 18:58:00,
2013-05-08 15:03:00,72.7,60.3,30.08,ESE,107,2.1,4.6,65,0.00,CLR,FEW,0.01,884.0,WeatherDisplay:10.37,2013-05-08 19:03:00,
2013-05-08 15:08:00,73.0,59.7,30.07,North,5,1.6,6.9,63,0.00,CLR,FEW,0.01,842.0,WeatherDisplay:10.37,2013-05-08 19:08:00,
2013-05-08 15:13:00,73.5,60.1,30.07,WNW,288,0.7,2.3,63,0.00,CLR,FEW,0.01,747.0,WeatherDisplay:10.37,2013-05-08 19:13:00,
2013-05-08 15:18:00,73.9,59.6,30.07,West,266,0.9,3.0,61,0.00,CLR,FEW,0.01,877.0,WeatherDisplay:10.37,2013-05-08 19:18:00,
2013-05-08 15:23:00,74.0,59.7,30.06,ENE,73,0.5,3.5,61,0.00,CLR,FEW,0.01,881.0,WeatherDisplay:10.37,2013-05-08 19:23:00,
2013-05-08 15:28:00,73.3,60.4,30.06,WSW,254,5.3,10.4,64,0.00,BKN,FEW,0.01,250.0,WeatherDisplay:10.37,2013-05-08 19:28:00,
2013-05-08 15:33:00,72.2,60.2,30.06,West,269,1.9,5.8,66,0.00,BKN,FEW,0.01,633.0,WeatherDisplay:10.37,2013-05-08 19:33:00,
2013-05-08 15:38:00,71.8,61.1,30.07,ESE,105,4.5,8.1,69,0.00,CLR,FEW,0.01,691.0,WeatherDisplay:10.37,2013-05-08 19:38:00,
2013-05-08 15:43:00,72.0,60.4,30.07,NE,42,3.8,9.2,67,0.00,CLR,FEW,0.01,664.0,WeatherDisplay:10.37,2013-05-08 19:43:00,
2013-05-08 15:48:00,71.8,61.1,30.07,NNE,30,0.5,2.3,69,0.00,BKN,FEW,0.01,345.0,WeatherDisplay:10.37,2013-05-08 19:48:00,
2013-05-08 15:53:00,71.3,61.0,30.06,SE,139,2.3,8.1,70,0.00,BKN,FEW,0.01,229.0,WeatherDisplay:10.37,2013-05-08 19:53:00,
2013-05-08 15:58:00,71.3,60.6,30.06,East,96,2.3,3.5,69,0.00,SCT,FEW,0.01,466.0,WeatherDisplay:10.37,2013-05-08 19:58:00,
2013-05-08 16:03:00,71.0,60.7,30.06,WNW,292,2.0,9.2,70,0.00,BKN,FEW,0.01,287.0,WeatherDisplay:10.37,2013-05-08 20:03:00,
2013-05-08 16:08:00,70.6,61.1,30.06,West,269,2.7,5.8,72,0.00,BKN,FEW,0.01,230.0,WeatherDisplay:10.37,2013-05-08 20:08:00,
2013-05-08 16:13:00,70.2,60.7,30.06,ESE,110,1.9,3.5,72,0.00,BKN,FEW,0.01,211.0,WeatherDisplay:10.37,2013-05-08 20:13:00,
2013-05-08 16:18:00,69.9,60.8,30.06,WNW,300,2.1,5.8,73,0.00,BKN,FEW,0.01,213.0,WeatherDisplay:10.37,2013-05-08 20:18:00,
2013-05-08 16:23:00,69.7,60.7,30.06,West,279,3.0,8.1,73,0.00,BKN,FEW,0.01,209.0,WeatherDisplay:10.37,2013-05-08 20:23:00,
2013-05-08 16:28:00,69.7,60.7,30.06,NW,318,1.6,6.9,73,0.00,BKN,FEW,0.01,153.0,WeatherDisplay:10.37,2013-05-08 20:28:00,
2013-05-08 16:33:00,69.9,60.5,30.06,ESE,118,3.7,9.2,72,0.00,BKN,FEW,0.01,243.0,WeatherDisplay:10.37,2013-05-08 20:33:00,
2013-05-08 16:38:00,70.8,60.9,30.06,WSW,246,1.6,5.8,71,0.00,SCT,FEW,0.01,320.0,WeatherDisplay:10.37,2013-05-08 20:38:00,
2013-05-08 16:43:00,71.1,60.4,30.06,NE,49,1.5,3.5,69,0.00,BKN,FEW,0.01,330.0,WeatherDisplay:10.37,2013-05-08 20:43:00,
2013-05-08 16:48:00,71.4,60.3,30.06,WSW,248,1.6,5.8,68,0.00,SCT,FEW,0.01,374.0,WeatherDisplay:10.37,2013-05-08 20:48:00,
2013-05-08 16:53:00,71.6,60.1,30.06,West,276,2.8,5.0,67,0.00,CLR,FEW,0.01,417.0,WeatherDisplay:10.37,2013-05-08 20:53:00,
2013-05-08 16:58:00,71.5,60.0,30.06,SE,146,1.7,9.2,67,0.00,FEW,,0.01,366.0,WeatherDisplay:10.37,2013-05-08 20:58:00,
2013-05-08 17:03:00,71.1,59.6,30.06,NNE,22,1.2,5.0,67,0.00,CLR,FEW,0.01,355.0,WeatherDisplay:10.37,2013-05-08 21:03:00,
2013-05-08 17:08:00,71.3,60.2,30.06,West,273,2.9,7.0,68,0.00,SCT,FEW,0.01,338.0,WeatherDisplay:10.37,2013-05-08 21:08:00,
2013-05-08 17:13:00,71.6,60.1,30.06,ESE,107,2.9,3.5,67,0.00,SCT,FEW,0.01,272.0,WeatherDisplay:10.37,2013-05-08 21:13:00,
2013-05-08 17:18:00,71.2,59.3,30.06,WSW,237,1.9,3.5,66,0.00,SCT,FEW,0.01,195.0,WeatherDisplay:10.37,2013-05-08 21:18:00,
2013-05-08 17:23:00,70.7,59.2,30.06,West,267,1.6,10.4,67,0.00,SCT,FEW,0.01,237.0,WeatherDisplay:10.37,2013-05-08 21:23:00,
2013-05-08 17:28:00,70.3,58.8,30.06,ENE,68,2.2,3.5,67,0.00,SCT,FEW,0.01,287.0,WeatherDisplay:10.37,2013-05-08 21:28:00,
2013-05-08 17:33:00,70.1,58.6,30.06,South,184,3.9,10.4,67,0.00,BKN,FEW,0.01,171.0,WeatherDisplay:10.37,2013-05-08 21:33:00,
2013-05-08 17:38:00,69.8,58.3,30.06,West,264,2.7,4.6,67,0.00,BKN,FEW,0.01,146.0,WeatherDisplay:10.37,2013-05-08 21:38:00,
2013-05-08 17:43:00,69.6,58.2,30.06,WSW,249,3.3,6.9,67,0.00,BKN,FEW,0.01,144.0,WeatherDisplay:10.37,2013-05-08 21:43:00,
2013-05-08 17:49:00,69.3,57.9,30.06,WNW,302,2.3,5.8,67,0.00,SCT,FEW,0.01,149.0,WeatherDisplay:10.37,2013-05-08 21:49:00,
2013-05-08 17:54:00,69.3,58.7,30.06,SSE,158,2.5,4.6,69,0.00,SCT,FEW,0.01,213.0,WeatherDisplay:10.37,2013-05-08 21:54:00,
2013-05-08 17:59:00,69.2,58.2,30.06,West,272,3.0,3.5,68,0.00,SCT,FEW,0.01,158.0,WeatherDisplay:10.37,2013-05-08 21:59:00,
2013-05-08 18:04:00,69.0,58.4,30.06,SSW,203,0.7,3.5,69,0.00,SCT,FEW,0.01,137.0,WeatherDisplay:10.37,2013-05-08 22:04:00,
2013-05-08 18:09:00,68.8,58.6,30.06,West,263,1.4,4.0,70,0.00,BKN,FEW,0.01,120.0,WeatherDisplay:10.37,2013-05-08 22:09:00,
2013-05-08 18:14:00,68.6,58.8,30.06,West,269,3.0,4.6,71,0.00,BKN,FEW,0.01,109.0,WeatherDisplay:10.37,2013-05-08 22:14:00,
2013-05-08 18:19:00,68.3,58.9,30.06,West,279,3.1,4.6,72,0.00,BKN,FEW,0.01,93.0,WeatherDisplay:10.37,2013-05-08 22:19:00,
2013-05-08 18:24:00,68.0,58.6,30.06,West,265,2.2,3.5,72,0.00,BKN,FEW,0.01,77.0,WeatherDisplay:10.37,2013-05-08 22:24:00,
2013-05-08 18:29:00,67.8,59.2,30.06,NW,321,2.7,5.8,74,0.00,BKN,FEW,0.01,74.0,WeatherDisplay:10.37,2013-05-08 22:29:00,
2013-05-08 18:34:00,67.6,59.4,30.06,West,279,2.3,5.0,75,0.00,BKN,FEW,0.01,62.0,WeatherDisplay:10.37,2013-05-08 22:34:00,
2013-05-08 18:39:00,67.4,59.6,30.06,WNW,287,0.4,2.3,76,0.00,BKN,FEW,0.01,49.0,WeatherDisplay:10.37,2013-05-08 22:39:00,
2013-05-08 18:44:00,67.3,59.8,30.06,West,272,0.7,3.5,77,0.00,BKN,FEW,0.01,33.0,WeatherDisplay:10.37,2013-05-08 22:44:00,
2013-05-08 18:49:00,67.0,59.9,30.06,West,276,0.5,2.0,78,0.00,BKN,FEW,0.01,26.0,WeatherDisplay:10.37,2013-05-08 22:49:00,
2013-05-08 18:54:00,66.7,60.0,30.06,NE,36,1.1,2.3,79,0.00,BKN,FEW,0.01,28.0,WeatherDisplay:10.37,2013-05-08 22:54:00,
2013-05-08 18:59:00,66.5,60.1,30.06,WNW,284,2.8,4.0,80,0.00,BKN,FEW,0.01,25.0,WeatherDisplay:10.37,2013-05-08 22:59:00,
2013-05-08 19:04:00,66.2,60.2,30.06,NE,47,0.9,3.5,81,0.00,BKN,FEW,0.01,19.0,WeatherDisplay:10.37,2013-05-08 23:04:00,
2013-05-08 19:09:00,66.1,60.4,30.06,North,355,1.0,2.3,82,0.00,BKN,FEW,0.01,12.0,WeatherDisplay:10.37,2013-05-08 23:09:00,
2013-05-08 19:14:00,65.9,60.2,30.06,NW,326,1.3,3.5,82,0.00,BKN,FEW,0.01,9.0,WeatherDisplay:10.37,2013-05-08 23:14:00,
2013-05-08 19:19:00,65.7,60.4,30.06,NNE,31,0.1,1.2,83,0.00,BKN,FEW,0.01,9.0,WeatherDisplay:10.37,2013-05-08 23:19:00,
2013-05-08 19:24:00,65.4,59.8,30.06,West,279,1.3,3.5,82,0.00,BKN,FEW,0.01,7.0,WeatherDisplay:10.37,2013-05-08 23:24:00,
2013-05-08 19:29:00,65.2,60.2,30.06,SE,128,1.0,3.5,84,0.00,BKN,FEW,0.01,7.0,WeatherDisplay:10.37,2013-05-08 23:29:00,
2013-05-08 19:34:00,64.9,59.9,30.06,West,268,0.0,0.0,84,0.00,BKN,FEW,0.01,7.0,WeatherDisplay:10.37,2013-05-08 23:34:00,
2013-05-08 19:39:00,64.7,59.8,30.06,West,268,0.2,0.0,84,0.00,BKN,FEW,0.01,5.0,WeatherDisplay:10.37,2013-05-08 23:39:00,
2013-05-08 19:44:00,64.6,60.0,30.06,NW,311,1.9,3.5,85,0.00,BKN,FEW,0.01,5.0,WeatherDisplay:10.37,2013-05-08 23:44:00,
2013-05-08 19:49:00,64.4,59.5,30.06,NE,49,1.0,3.5,84,0.00,CLR,FEW,0.01,0.0,WeatherDisplay:10.37,2013-05-08 23:49:00,
2013-05-08 19:54:00,64.3,59.7,30.06,NE,42,0.3,2.3,85,0.00,CLR,FEW,0.01,0.0,WeatherDisplay:10.37,2013-05-08 23:54:00,
2013-05-08 19:59:00,64.1,59.5,30.06,NNE,28,0.7,4.6,85,0.00,CLR,FEW,0.01,0.0,WeatherDisplay:10.37,2013-05-08 23:59:00,
2013-05-08 20:04:00,64.0,59.7,30.06,NE,41,2.2,3.5,86,0.00,CLR,FEW,0.01,0.0,WeatherDisplay:10.37,2013-05-09 00:04:00,
2013-05-08 20:09:00,63.8,59.5,30.06,NE,49,1.2,3.5,86,0.00,CLR,FEW,0.01,0.0,WeatherDisplay:10.37,2013-05-09 00:09:00,
2013-05-08 20:14:00,63.6,59.3,30.06,NE,42,0.9,3.0,86,0.00,CLR,FEW,0.01,0.0,WeatherDisplay:10.37,2013-05-09 00:14:00,
2013-05-08 20:19:00,63.5,59.6,30.06,ENE,65,2.3,5.0,87,0.00,CLR,FEW,0.01,0.0,WeatherDisplay:10.37,2013-05-09 00:19:00,
2013-05-08 20:24:00,63.4,59.5,30.06,NE,47,2.2,4.6,87,0.00,CLR,FEW,0.01,0.0,WeatherDisplay:10.37,2013-05-09 00:24:00,
2013-05-08 20:29:00,63.3,59.4,30.06,NNE,30,1.7,3.5,87,0.00,CLR,FEW,0.01,0.0,WeatherDisplay:10.37,2013-05-09 00:29:00,
2013-05-08 20:34:00,63.2,59.3,30.06,NNE,31,3.5,3.5,87,0.00,CLR,FEW,0.01,0.0,WeatherDisplay:10.37,2013-05-09 00:34:00,
2013-05-08 20:39:00,63.1,59.5,30.06,NE,50,1.7,3.5,88,0.00,RA,FEW,0.01,0.0,WeatherDisplay:10.37,2013-05-09 00:39:00,
2013-05-08 20:44:00,63.0,59.4,30.06,NE,41,2.4,4.6,88,0.00,RA,FEW,0.01,0.0,WeatherDisplay:10.37,2013-05-09 00:44:00,
2013-05-08 20:49:00,62.8,59.2,30.06,NNE,33,0.0,1.2,88,0.00,CLR,FEW,0.01,0.0,WeatherDisplay:10.37,2013-05-09 00:49:00,
2013-05-08 20:54:00,62.7,59.1,30.06,NE,37,1.4,3.5,88,0.00,CLR,FEW,0.01,0.0,WeatherDisplay:10.37,2013-05-09 00:54:00,
2013-05-08 20:59:00,62.6,59.0,30.06,ENE,62,0.1,1.2,88,0.00,CLR,FEW,0.01,0.0,WeatherDisplay:10.37,2013-05-09 00:59:00,
2013-05-08 21:04:00,62.6,59.0,30.06,ENE,61,2.5,3.5,88,0.00,CLR,FEW,0.01,0.0,WeatherDisplay:10.37,2013-05-09 01:04:00,
2013-05-08 21:09:00,62.6,59.3,30.06,South,182,0.7,2.3,89,0.00,CLR,FEW,0.01,0.0,WeatherDisplay:10.37,2013-05-09 01:09:00,
2013-05-08 21:14:00,62.6,59.3,30.06,NW,320,0.4,1.2,89,0.00,CLR,FEW,0.01,0.0,WeatherDisplay:10.37,2013-05-09 01:14:00,
2013-05-08 21:19:00,62.5,58.9,30.06,NW,317,0.0,0.0,88,0.00,CLR,FEW,0.01,0.0,WeatherDisplay:10.37,2013-05-09 01:19:00,
2013-05-08 21:24:00,62.4,59.1,30.06,NW,317,0.0,0.0,89,0.00,CLR,FEW,0.01,0.0,WeatherDisplay:10.37,2013-05-09 01:24:00,
2013-05-08 21:29:00,62.2,58.9,30.06,NW,317,0.9,2.3,89,0.00,CLR,FEW,0.01,0.0,WeatherDisplay:10.37,2013-05-09 01:29:00,
2013-05-08 21:34:00,62.2,58.9,30.06,NW,317,0.0,0.0,89,0.00,CLR,FEW,0.01,0.0,WeatherDisplay:10.37,2013-05-09 01:34:00,
2013-05-08 21:39:00,62.1,58.8,30.06,NNW,329,0.1,1.2,89,0.00,CLR,FEW,0.01,0.0,WeatherDisplay:10.37,2013-05-09 01:39:00,
2013-05-08 21:44:00,62.1,58.8,30.06,NNW,329,0.0,0.0,89,0.00,CLR,FEW,0.01,0.0,WeatherDisplay:10.37,2013-05-09 01:44:00,
2013-05-08 21:49:00,62.0,58.7,30.06,South,175,0.1,1.2,89,0.00,CLR,FEW,0.01,0.0,WeatherDisplay:10.37,2013-05-09 01:49:00,
2013-05-08 21:54:00,62.1,58.8,30.06,East,86,1.6,3.5,89,0.00,CLR,FEW,0.01,0.0,WeatherDisplay:10.37,2013-05-09 01:54:00,
2013-05-08 21:59:00,62.1,58.8,30.06,NE,45,3.0,3.5,89,0.00,CLR,FEW,0.01,0.0,WeatherDisplay:10.37,2013-05-09 01:59:00,
2013-05-08 22:04:00,62.0,58.7,30.06,NE,45,1.9,3.5,89,0.00,CLR,FEW,0.01,0.0,WeatherDisplay:10.37,2013-05-09 02:04:00,
2013-05-08 22:09:00,61.9,58.6,30.06,NNE,28,1.0,2.3,89,0.00,CLR,FEW,0.01,0.0,WeatherDisplay:10.37,2013-05-09 02:09:00,
2013-05-08 22:14:00,61.8,58.8,30.06,NE,42,0.5,0.0,90,0.00,CLR,FEW,0.01,0.0,WeatherDisplay:10.37,2013-05-09 02:14:00,
2013-05-08 22:19:00,61.6,58.9,30.06,NE,42,0.6,2.0,91,0.01,RA,FEW,0.02,0.0,WeatherDisplay:10.37,2013-05-09 02:19:00,
2013-05-08 22:24:00,61.4,58.7,30.05,NE,41,0.0,1.2,91,0.01,RA,FEW,0.02,0.0,WeatherDisplay:10.37,2013-05-09 02:24:00,
2013-05-08 22:29:00,61.1,58.8,30.05,NE,41,0.4,1.2,92,0.01,CLR,FEW,0.02,0.0,WeatherDisplay:10.37,2013-05-09 02:29:00,
2013-05-08 22:34:00,60.8,58.5,30.05,NE,41,1.1,2.3,92,0.01,CLR,FEW,0.02,0.0,WeatherDisplay:10.37,2013-05-09 02:34:00,
2013-05-08 22:39:00,60.7,58.7,30.04,NE,41,0.6,1.2,93,0.01,CLR,FEW,0.02,0.0,WeatherDisplay:10.37,2013-05-09 02:39:00,
2013-05-08 22:44:00,60.6,58.6,30.04,NE,41,0.1,1.2,93,0.01,CLR,FEW,0.02,0.0,WeatherDisplay:10.37,2013-05-09 02:44:00,
2013-05-08 22:49:00,60.5,58.5,30.04,NE,41,0.0,0.0,93,0.01,CLR,FEW,0.02,0.0,WeatherDisplay:10.37,2013-05-09 02:49:00,
2013-05-08 22:54:00,60.3,58.6,30.04,NE,41,0.4,1.2,94,0.01,CLR,FEW,0.02,0.0,WeatherDisplay:10.37,2013-05-09 02:54:00,
2013-05-08 22:59:00,60.2,58.5,30.04,NE,41,0.1,0.0,94,0.02,RA,FEW,0.03,0.0,WeatherDisplay:10.37,2013-05-09 02:59:00,
2013-05-08 23:04:00,60.3,58.9,30.04,NE,41,0.9,1.2,95,0.03,RA,FEW,0.04,0.0,WeatherDisplay:10.37,2013-05-09 03:04:00,
2013-05-08 23:09:00,60.2,58.8,30.03,NE,41,0.2,1.2,95,0.03,RA,FEW,0.04,0.0,WeatherDisplay:10.37,2013-05-09 03:09:00,
2013-05-08 23:14:00,60.0,58.6,30.03,NE,41,0.1,1.2,95,0.03,,FEW,0.04,0.0,WeatherDisplay:10.37,2013-05-09 03:14:00,
2013-05-08 23:19:00,60.0,58.6,30.03,NE,41,0.6,1.2,95,0.02,CLR,FEW,0.04,0.0,WeatherDisplay:10.37,2013-05-09 03:19:00,
2013-05-08 23:24:00,59.9,58.5,30.03,NE,41,0.0,0.0,95,0.02,CLR,FEW,0.04,0.0,WeatherDisplay:10.37,2013-05-09 03:24:00,
2013-05-08 23:29:00,59.9,58.5,30.03,NE,41,0.6,2.3,95,0.02,CLR,FEW,0.04,0.0,WeatherDisplay:10.37,2013-05-09 03:29:00,
2013-05-08 23:34:00,59.8,58.4,30.03,NE,34,0.5,3.5,95,0.02,CLR,FEW,0.04,0.0,WeatherDisplay:10.37,2013-05-09 03:34:00,
2013-05-08 23:39:00,59.9,58.5,30.02,NE,34,0.3,1.2,95,0.02,CLR,FEW,0.04,0.0,WeatherDisplay:10.37,2013-05-09 03:39:00,
2013-05-08 23:44:00,59.8,58.7,30.02,NE,34,1.1,3.0,96,0.02,CLR,FEW,0.04,0.0,WeatherDisplay:10.37,2013-05-09 03:44:00,
2013-05-08 23:49:00,59.8,58.7,30.02,NE,34,1.2,3.5,96,0.02,CLR,FEW,0.04,0.0,WeatherDisplay:10.37,2013-05-09 03:49:00,
2013-05-08 23:54:00,59.8,58.7,30.02,NE,38,0.0,0.0,96,0.02,CLR,FEW,0.04,0.0,WeatherDisplay:10.37,2013-05-09 03:54:00,
2013-05-08 23:59:00,59.8,58.7,30.02,NE,35,0.6,2.3,96,0.01,CLR,FEW,0.04,0.0,WeatherDisplay:10.37,2013-05-09 03:59:00,